Terminal Aerodrome Forecast
Issued by NWS

Home | Current Version | Previous Version | Text Only | Print | Product List | Glossary On
Versions: 1 2 3 4 5 6 7 8 9 10 11 12 13
000
FTUS43 KIWX 220520
TAFSBN
TAF
KSBN 220520Z 2206/2306 33008KT P6SM OVC035
      TEMPO 2208/2212 OVC030
     FM221600 28007KT P6SM BKN035
     FM230100 21004KT P6SM SCT250=

USA.gov is the U.S. government's official web portal to all federal, state and local government web resources and services.